Minjerribah — VHLD — position and weather

sailwx.info

Track history (hours):
 
Tides and Currents Weather Stations Pressure Air Temp Water Temp Dewpoint Dewpoint Depression Visibility Wind Speed Wind Dir Waves Ship Positions

Minjerribah

Last reported at 2018-Feb-19 05:58 UTC. Time now 2018-Feb-19 06:05 UTC.
Position S 27°32' E 153°17'.

Length 68 m; draft 2 m.

Type: Passenger vessel. MMSI: 503709000.

Date/timePositionNaut miles runAvg speedWind from/ knotsBaromVisibWave heightAir tempDewpointWater temp
2018-Feb-19 05:58S 27°32' E 153°17'5 6.6
2018-Feb-19 05:10S 27°31' E 153°23'1 7.8
2018-Feb-19 05:00S 27°30' E 153°24'2 4.0
2018-Feb-19 04:30S 27°31' E 153°22'5 8.8
2018-Feb-19 03:59S 27°32' E 153°17'5 6.4
2018-Feb-19 03:09S 27°31' E 153°23'1 8.2
2018-Feb-19 03:00S 27°30' E 153°24'2 3.8
2018-Feb-19 02:30S 27°31' E 153°22'5 9.4
2018-Feb-19 02:01S 27°32' E 153°17'3 4.9
2018-Feb-19 01:19S 27°32' E 153°21'3 9.9
2018-Feb-19 01:00S 27°30' E 153°24'2 3.8
2018-Feb-19 00:30S 27°31' E 153°22'5 9.3
2018-Feb-19 00:00S 27°32' E 153°17'3 5.1
2018-Feb-18 23:26S 27°32' E 153°20'4 8.5
2018-Feb-18 23:00S 27°30' E 153°24'2 4.6
2018-Feb-18 22:30S 27°32' E 153°22'4 8.6
2018-Feb-18 22:00S 27°32' E 153°17'0 0.0
2018-Feb-18 21:30S 27°32' E 153°17'3 5.0
2018-Feb-18 20:57S 27°32' E 153°20'4 8.6
2018-Feb-18 20:31S 27°30' E 153°24'3 5.3
2018-Feb-18 20:00S 27°32' E 153°21'4 0.4
2018-Feb-18 09:59S 27°32' E 153°17'3 5.9
2018-Feb-18 09:26S 27°32' E 153°21'3 7.5
2018-Feb-18 09:00S 27°30' E 153°24'3 6.4
2018-Feb-18 08:30S 27°32' E 153°21'3 6.3
2018-Feb-18 07:59S 27°32' E 153°17'5 7.7
2018-Feb-18 07:17S 27°31' E 153°23'1 4.1
2018-Feb-18 07:00S 27°30' E 153°24'3 6.4
2018-Feb-18 06:30S 27°32' E 153°21'3 4.7
2018-Feb-18 05:50S 27°32' E 153°17'3 8.0
2018-Feb-18 05:30S 27°32' E 153°20'4 7.3
2018-Feb-18 05:00S 27°30' E 153°24'3 5.1
2018-Feb-18 04:30S 27°31' E 153°22'4 8.0
2018-Feb-18 04:00S 27°32' E 153°17'5 6.7
2018-Feb-18 03:12S 27°31' E 153°23'1 6.3
2018-Feb-18 03:00S 27°30' E 153°24'2 4.0
2018-Feb-18 02:30S 27°31' E 153°22'5 9.1
2018-Feb-18 02:00S 27°32' E 153°17'2 4.2
2018-Feb-18 01:29S 27°32' E 153°19'4 9.2
2018-Feb-18 01:00S 27°30' E 153°24'3 5.0
2018-Feb-18 00:30S 27°32' E 153°22'4 8.0
2018-Feb-18 00:00S 27°32' E 153°17'3 5.1
2018-Feb-17 23:30S 27°32' E 153°20'4 8.0
2018-Feb-17 23:00S 27°30' E 153°24'2 4.4
2018-Feb-17 22:30S 27°31' E 153°22'4 8.6
2018-Feb-17 22:00S 27°32' E 153°17'0 0.0
2018-Feb-17 21:30S 27°32' E 153°17'3 6.0
2018-Feb-17 21:00S 27°32' E 153°21'3 6.9
2018-Feb-17 20:30S 27°30' E 153°24'3 5.5
2018-Feb-17 20:00S 27°31' E 153°21'4 0.3
2018-Feb-17 08:10S 27°32' E 153°17'0 0.0
2018-Feb-17 08:00S 27°32' E 153°17'4 7.2
2018-Feb-17 07:30S 27°31' E 153°21'3 5.7
2018-Feb-17 07:00S 27°30' E 153°24'4 7.5
2018-Feb-17 06:30S 27°32' E 153°20'3 5.5
2018-Feb-17 06:00S 27°32' E 153°17'3 5.2
2018-Feb-17 05:30S 27°32' E 153°20'4 7.7
2018-Feb-17 05:00S 27°30' E 153°24'3 5.3
2018-Feb-17 04:30S 27°32' E 153°21'4 7.7
2018-Feb-17 04:00S 27°32' E 153°17'2 3.8
2018-Feb-17 03:30S 27°32' E 153°19'5 9.5
2018-Feb-17 03:00S 27°30' E 153°24'2 4.1
2018-Feb-17 02:30S 27°31' E 153°22'4 8.5
2018-Feb-17 01:59S 27°32' E 153°17'3 5.5
2018-Feb-17 01:30S 27°32' E 153°20'4 7.8
2018-Feb-17 01:00S 27°30' E 153°24'4 8.5
2018-Feb-17 00:30S 27°32' E 153°20'2 4.7
2018-Feb-17 00:00S 27°32' E 153°17'4 7.4
2018-Feb-16 23:30S 27°31' E 153°21'3 5.5
2018-Feb-16 23:00S 27°30' E 153°24'510.6
2018-Feb-16 22:30S 27°32' E 153°19'2 3.0
2018-Feb-16 22:00S 27°32' E 153°17'0 0.0
2018-Feb-16 21:24S 27°32' E 153°17'3 7.5
2018-Feb-16 21:00S 27°32' E 153°20'4 7.1
2018-Feb-16 20:30S 27°30' E 153°24'3 6.5
2018-Feb-16 20:00S 27°32' E 153°21'3 6.6
2018-Feb-16 19:30S 27°32' E 153°17'0 0.0
2018-Feb-16 11:44S 27°32' E 153°17'2 8.2
2018-Feb-16 11:30S 27°32' E 153°19'5 9.5
2018-Feb-16 11:00S 27°30' E 153°24'3 5.1
2018-Feb-16 10:30S 27°32' E 153°22'4 7.7
2018-Feb-16 10:00S 27°32' E 153°17'2 4.4
2018-Feb-16 09:30S 27°32' E 153°19'4 8.9
2018-Feb-16 09:00S 27°30' E 153°24'3 6.5
2018-Feb-16 08:30S 27°32' E 153°21'3 6.6
2018-Feb-16 08:00S 27°32' E 153°17'3 5.0
2018-Feb-16 07:27S 27°32' E 153°20'4 8.3
2018-Feb-16 07:00S 27°30' E 153°24'4 7.6
2018-Feb-16 06:30S 27°32' E 153°20'3 5.4
2018-Feb-16 06:00S 27°32' E 153°17'2 3.2
2018-Feb-16 05:30S 27°32' E 153°19'510.5
2018-Feb-16 05:00S 27°30' E 153°24'3 5.6
2018-Feb-16 04:30S 27°32' E 153°21'4 7.1
2018-Feb-16 04:00S 27°32' E 153°17'3 5.1
2018-Feb-16 03:24S 27°32' E 153°21'3 8.8
2018-Feb-16 03:00S 27°30' E 153°24'4 7.4
2018-Feb-16 02:30S 27°32' E 153°20'3 5.6
2018-Feb-16 02:00S 27°32' E 153°17'3 5.0
2018-Feb-16 01:29S 27°32' E 153°20'4 8.3
2018-Feb-16 01:01S 27°30' E 153°24'3 6.0
2018-Feb-16 00:30S 27°32' E 153°21'4 6.9
2018-Feb-16 00:00S 27°32' E 153°17'2 4.5
2018-Feb-15 23:29S 27°32' E 153°20'4 8.9
2018-Feb-15 23:00S 27°30' E 153°24'2 4.2
2018-Feb-15 22:30S 27°31' E 153°22'4 8.8
2018-Feb-15 22:00S 27°32' E 153°17'0 0.0
2018-Feb-15 21:30S 27°32' E 153°17'3 5.5
2018-Feb-15 20:59S 27°32' E 153°20'4 7.6
2018-Feb-15 20:30S 27°30' E 153°24'3 5.4
2018-Feb-15 20:00S 27°32' E 153°21'4 7.7
2018-Feb-15 19:30S 27°32' E 153°17'0 0.0
2018-Feb-15 07:51S 27°32' E 153°17'2 6.2
2018-Feb-15 07:29S 27°32' E 153°20'4 8.9
2018-Feb-15 07:00S 27°30' E 153°24'3 5.6
2018-Feb-15 06:30S 27°32' E 153°21'4 7.6
2018-Feb-15 06:01S 27°32' E 153°17'2 4.3
2018-Feb-15 05:28S 27°32' E 153°20'4 9.1
2018-Feb-15 05:00S 27°30' E 153°24'3 5.1
2018-Feb-15 04:31S 27°32' E 153°22'4 8.0
2018-Feb-15 04:01S 27°32' E 153°17'3 4.9
2018-Feb-15 03:26S 27°32' E 153°20'4 8.7
2018-Feb-15 03:01S 27°30' E 153°24'2 4.9
2018-Feb-15 02:31S 27°32' E 153°22'4 8.0
2018-Feb-15 02:00S 27°32' E 153°17'2 4.1
2018-Feb-15 01:30S 27°32' E 153°19'5 9.4
2018-Feb-15 01:00S 27°30' E 153°24'3 5.5
2018-Feb-15 00:30S 27°32' E 153°21'4 7.4
2018-Feb-15 00:00S 27°32' E 153°17'3 6.6
2018-Feb-14 23:30S 27°32' E 153°21'3 6.6
2018-Feb-14 23:00S 27°30' E 153°24'2 4.4
2018-Feb-14 22:30S 27°32' E 153°22'4 8.8
2018-Feb-14 22:00S 27°32' E 153°17'0 0.0
2018-Feb-14 21:30S 27°32' E 153°17'2 4.6
2018-Feb-14 20:59S 27°32' E 153°20'4 8.6
2018-Feb-14 20:30S 27°30' E 153°24'2 4.6
2018-Feb-14 20:00S 27°32' E 153°22'4 8.6
2018-Feb-14 19:30S 27°32' E 153°17'0 0.0
2018-Feb-14 19:01S 27°32' E 153°17'0 0.0
2018-Feb-14 07:52S 27°32' E 153°17'2 5.1
2018-Feb-14 07:29S 27°32' E 153°19'5 9.7
2018-Feb-14 07:00S 27°30' E 153°24'3 5.4
2018-Feb-14 06:30S 27°32' E 153°21'4 7.7
2018-Feb-14 06:00S 27°32' E 153°17'2 3.5
2018-Feb-14 05:30S 27°32' E 153°19'5 9.8
2018-Feb-14 05:00S 27°30' E 153°24'2 5.0
2018-Feb-14 04:30S 27°32' E 153°22'4 7.9
2018-Feb-14 04:00S 27°32' E 153°17'3 5.1
2018-Feb-14 03:28S 27°32' E 153°20'4 8.2
2018-Feb-14 03:00S 27°30' E 153°24'2 4.8
2018-Feb-14 02:30S 27°31' E 153°22'4 7.9
2018-Feb-14 01:59S 27°32' E 153°17'2 3.6
2018-Feb-14 01:30S 27°32' E 153°19'5 9.9
2018-Feb-14 01:01S 27°30' E 153°24'2 3.9
2018-Feb-14 00:30S 27°31' E 153°22'5 9.0
2018-Feb-14 00:00S 27°32' E 153°17'2 4.3
2018-Feb-13 23:27S 27°32' E 153°20'4 9.4
2018-Feb-13 23:00S 27°30' E 153°24'2 4.9
2018-Feb-13 22:30S 27°32' E 153°22'4 8.0
2018-Feb-13 22:00S 27°32' E 153°17'0 0.0
2018-Feb-13 21:31S 27°32' E 153°17'2 4.1
2018-Feb-13 20:58S 27°32' E 153°20'4 9.4
2018-Feb-13 20:30S 27°30' E 153°24'2 4.1
2018-Feb-13 20:00S 27°31' E 153°22'5 9.1
2018-Feb-13 19:30S 27°32' E 153°17'0 0.0
2018-Feb-13 07:59S 27°32' E 153°17'3 5.6
2018-Feb-13 07:31S 27°32' E 153°20'4 7.6
2018-Feb-13 07:00S 27°30' E 153°24'3 6.1
2018-Feb-13 06:31S 27°32' E 153°21'4 7.0
2018-Feb-13 06:01S 27°32' E 153°17'2 4.6
2018-Feb-13 05:30S 27°32' E 153°20'4 8.6
2018-Feb-13 05:00S 27°30' E 153°24'3 6.0
2018-Feb-13 04:30S 27°32' E 153°21'4 7.0
2018-Feb-13 04:00S 27°32' E 153°17'2 4.2
2018-Feb-13 03:31S 27°32' E 153°19'4 8.7
2018-Feb-13 03:00S 27°30' E 153°24'2 4.7
2018-Feb-13 02:30S 27°32' E 153°22'4 8.6
2018-Feb-13 02:01S 27°32' E 153°17'2 4.1
2018-Feb-13 01:30S 27°32' E 153°19'4 9.0
2018-Feb-13 01:00S 27°30' E 153°24'2 4.8
2018-Feb-13 00:30S 27°32' E 153°22'4 8.5
2018-Feb-13 00:01S 27°32' E 153°17'3 4.8
2018-Feb-12 23:28S 27°32' E 153°20'4 8.6
2018-Feb-12 23:01S 27°30' E 153°24'2 5.0
2018-Feb-12 22:30S 27°32' E 153°22'4 8.2
2018-Feb-12 22:01S 27°32' E 153°17'0 0.0
2018-Feb-12 21:30S 27°32' E 153°17'3 5.9
2018-Feb-12 21:00S 27°32' E 153°20'3 7.1
2018-Feb-12 20:30S 27°30' E 153°24'2 4.7
2018-Feb-12 20:01S 27°31' E 153°22'4 6.7
2018-Feb-12 19:23S 27°32' E 153°17'0 0.0
2018-Feb-12 19:01S 27°32' E 153°17'0 0.0
2018-Feb-12 08:08S 27°32' E 153°17'0 0.0
2018-Feb-12 08:01S 27°32' E 153°17'3 5.1
2018-Feb-12 07:30S 27°32' E 153°20'4 7.9
2018-Feb-12 07:00S 27°30' E 153°24'3 5.5
2018-Feb-12 06:30S 27°32' E 153°21'4 7.5
2018-Feb-12 06:00S 27°32' E 153°17'3 5.0
2018-Feb-12 05:30S 27°32' E 153°20'4 8.1
2018-Feb-12 05:00S 27°30' E 153°24'3 6.0
2018-Feb-12 04:30S 27°32' E 153°21'4 7.2
2018-Feb-12 04:01S 27°32' E 153°17'2 4.4
2018-Feb-12 03:30S 27°32' E 153°20'4 8.8
2018-Feb-12 03:01S 27°30' E 153°24'2 4.8
2018-Feb-12 02:30S 27°31' E 153°22'4 7.9
2018-Feb-12 01:59S 27°32' E 153°17'2 4.1
2018-Feb-12 01:30S 27°32' E 153°19'5 9.4
2018-Feb-12 01:01S 27°30' E 153°24'2 4.4
2018-Feb-12 00:30S 27°31' E 153°22'4 8.8
2018-Feb-12 00:01S 27°32' E 153°17'2 4.4
2018-Feb-11 23:31S 27°32' E 153°20'4 8.6
2018-Feb-11 23:00S 27°30' E 153°24'3 5.8
2018-Feb-11 22:30S 27°32' E 153°21'4 7.3
2018-Feb-11 22:01S 27°32' E 153°17'0 0.0
2018-Feb-11 21:31S 27°32' E 153°17'3 6.0
2018-Feb-11 21:00S 27°32' E 153°21'3 6.8
2018-Feb-11 20:30S 27°30' E 153°24'2 4.0
2018-Feb-11 20:01S 27°31' E 153°22'5 9.1
2018-Feb-11 19:30S 27°32' E 153°17'0 0.0
2018-Feb-11 09:58S 27°32' E 153°17'3 5.4
2018-Feb-11 09:30S 27°32' E 153°20'4 8.1
2018-Feb-11 09:00S 27°30' E 153°24'2 3.1
2018-Feb-11 08:30S 27°31' E 153°23'510.0
2018-Feb-11 08:00S 27°32' E 153°17'2 4.4
2018-Feb-11 07:29S 27°32' E 153°20'4 8.8
2018-Feb-11 07:00S 27°30' E 153°24'2 4.6
2018-Feb-11 06:30S 27°32' E 153°22'4 8.5
2018-Feb-11 06:00S 27°32' E 153°17'2 4.7
2018-Feb-11 05:30S 27°32' E 153°20'4 8.6
2018-Feb-11 05:00S 27°30' E 153°24'2 4.6
2018-Feb-11 04:30S 27°32' E 153°22'4 8.6
2018-Feb-11 04:00S 27°32' E 153°17'2 3.7
2018-Feb-11 03:30S 27°32' E 153°19'5 9.9
2018-Feb-11 03:00S 27°30' E 153°24'2 4.3
2018-Feb-11 02:30S 27°31' E 153°22'4 8.8
2018-Feb-11 02:00S 27°32' E 153°17'1 2.9
2018-Feb-11 01:30S 27°32' E 153°18'510.8
2018-Feb-11 01:00S 27°30' E 153°24'2 3.7
2018-Feb-11 00:30S 27°31' E 153°22'5 9.4
2018-Feb-11 00:00S 27°32' E 153°17'2 3.3
2018-Feb-10 23:30S 27°32' E 153°19'5 9.9
2018-Feb-10 22:59S 27°30' E 153°24'2 4.2
2018-Feb-10 22:30S 27°31' E 153°22'5 9.0
2018-Feb-10 22:00S 27°32' E 153°17'0 0.0
2018-Feb-10 21:30S 27°32' E 153°17'2 3.8
2018-Feb-10 21:00S 27°32' E 153°19'5 9.6
2018-Feb-10 20:30S 27°30' E 153°24'2 3.3
2018-Feb-10 20:00S 27°31' E 153°23'5 9.7
2018-Feb-10 19:30S 27°32' E 153°17'0 0.1
2018-Feb-10 19:00S 27°32' E 153°17'0 0.0
2018-Feb-10 07:48S 27°32' E 153°17'2 6.6
2018-Feb-10 07:29S 27°32' E 153°19'4 9.5
2018-Feb-10 07:00S 27°30' E 153°24'2 3.8
2018-Feb-10 06:30S 27°31' E 153°22'5 9.3
2018-Feb-10 06:00S 27°32' E 153°17'2 3.7
2018-Feb-10 05:30S 27°32' E 153°19'5 9.4
2018-Feb-10 05:00S 27°30' E 153°24'2 4.4
2018-Feb-10 04:30S 27°31' E 153°22'4 8.8
2018-Feb-10 04:00S 27°32' E 153°17'2 3.5
2018-Feb-10 03:30S 27°32' E 153°19'5 9.9
2018-Feb-10 03:00S 27°30' E 153°24'2 4.7
2018-Feb-10 02:30S 27°31' E 153°22'4 8.4
2018-Feb-10 02:00S 27°32' E 153°17'2 3.9
2018-Feb-10 01:30S 27°32' E 153°19'5 9.6
2018-Feb-10 01:00S 27°30' E 153°24'3 5.5
2018-Feb-10 00:30S 27°32' E 153°21'4 7.5
2018-Feb-10 00:00S 27°32' E 153°17'2 3.9
2018-Feb-09 23:28S 27°32' E 153°19'5 9.6
2018-Feb-09 23:00S 27°30' E 153°24'0 0.1
2018-Feb-09 22:46S 27°30' E 153°24'2 9.1
2018-Feb-09 22:30S 27°32' E 153°22'4 8.4
2018-Feb-09 22:00S 27°32' E 153°17'2 1.9
2018-Feb-09 21:00S 27°32' E 153°19'0 0.0
2018-Feb-09 11:30S 27°32' E 153°19'2 1.3
2018-Feb-09 10:00S 27°32' E 153°17'2 3.6
2018-Feb-09 09:30S 27°32' E 153°19'2 1.9
2018-Feb-09 08:30S 27°32' E 153°21'3 2.0
2018-Feb-09 07:00S 27°30' E 153°24'2 4.8
2018-Feb-09 06:30S 27°32' E 153°22'  
Track history (hours):
 
Tides and Currents Weather Stations Pressure Air Temp Water Temp Dewpoint Dewpoint Depression Visibility Wind Speed Wind Dir Waves Ship Positions

Minjerribah

Last reported at 2018-Feb-19 05:58 UTC. Time now 2018-Feb-19 06:05 UTC.
Position S 27°32' E 153°17'.

Length 68 m; draft 2 m.

Type: Passenger vessel. MMSI: 503709000.

Date/timePositionNaut miles runAvg speedWind from/ knotsBaromVisibWave heightAir tempDewpointWater temp
2018-Feb-19 05:58S 27°32' E 153°17'5 6.6
2018-Feb-19 05:10S 27°31' E 153°23'1 7.8
2018-Feb-19 05:00S 27°30' E 153°24'2 4.0
2018-Feb-19 04:30S 27°31' E 153°22'5 8.8
2018-Feb-19 03:59S 27°32' E 153°17'5 6.4
2018-Feb-19 03:09S 27°31' E 153°23'1 8.2
2018-Feb-19 03:00S 27°30' E 153°24'2 3.8
2018-Feb-19 02:30S 27°31' E 153°22'5 9.4
2018-Feb-19 02:01S 27°32' E 153°17'3 4.9
2018-Feb-19 01:19S 27°32' E 153°21'3 9.9
2018-Feb-19 01:00S 27°30' E 153°24'2 3.8
2018-Feb-19 00:30S 27°31' E 153°22'5 9.3
2018-Feb-19 00:00S 27°32' E 153°17'3 5.1
2018-Feb-18 23:26S 27°32' E 153°20'4 8.5
2018-Feb-18 23:00S 27°30' E 153°24'2 4.6
2018-Feb-18 22:30S 27°32' E 153°22'4 8.6
2018-Feb-18 22:00S 27°32' E 153°17'0 0.0
2018-Feb-18 21:30S 27°32' E 153°17'3 5.0
2018-Feb-18 20:57S 27°32' E 153°20'4 8.6
2018-Feb-18 20:31S 27°30' E 153°24'3 5.3
2018-Feb-18 20:00S 27°32' E 153°21'4 0.4
2018-Feb-18 09:59S 27°32' E 153°17'3 5.9
2018-Feb-18 09:26S 27°32' E 153°21'3 7.5
2018-Feb-18 09:00S 27°30' E 153°24'3 6.4
2018-Feb-18 08:30S 27°32' E 153°21'3 6.3
2018-Feb-18 07:59S 27°32' E 153°17'5 7.7
2018-Feb-18 07:17S 27°31' E 153°23'1 4.1
2018-Feb-18 07:00S 27°30' E 153°24'3 6.4
2018-Feb-18 06:30S 27°32' E 153°21'3 4.7
2018-Feb-18 05:50S 27°32' E 153°17'3 8.0
2018-Feb-18 05:30S 27°32' E 153°20'4 7.3
2018-Feb-18 05:00S 27°30' E 153°24'3 5.1
2018-Feb-18 04:30S 27°31' E 153°22'4 8.0
2018-Feb-18 04:00S 27°32' E 153°17'5 6.7
2018-Feb-18 03:12S 27°31' E 153°23'1 6.3
2018-Feb-18 03:00S 27°30' E 153°24'2 4.0
2018-Feb-18 02:30S 27°31' E 153°22'5 9.1
2018-Feb-18 02:00S 27°32' E 153°17'2 4.2
2018-Feb-18 01:29S 27°32' E 153°19'4 9.2
2018-Feb-18 01:00S 27°30' E 153°24'3 5.0
2018-Feb-18 00:30S 27°32' E 153°22'4 8.0
2018-Feb-18 00:00S 27°32' E 153°17'3 5.1
2018-Feb-17 23:30S 27°32' E 153°20'4 8.0
2018-Feb-17 23:00S 27°30' E 153°24'2 4.4
2018-Feb-17 22:30S 27°31' E 153°22'4 8.6
2018-Feb-17 22:00S 27°32' E 153°17'0 0.0
2018-Feb-17 21:30S 27°32' E 153°17'3 6.0
2018-Feb-17 21:00S 27°32' E 153°21'3 6.9
2018-Feb-17 20:30S 27°30' E 153°24'3 5.5
2018-Feb-17 20:00S 27°31' E 153°21'4 0.3
2018-Feb-17 08:10S 27°32' E 153°17'0 0.0
2018-Feb-17 08:00S 27°32' E 153°17'4 7.2
2018-Feb-17 07:30S 27°31' E 153°21'3 5.7
2018-Feb-17 07:00S 27°30' E 153°24'4 7.5
2018-Feb-17 06:30S 27°32' E 153°20'3 5.5
2018-Feb-17 06:00S 27°32' E 153°17'3 5.2
2018-Feb-17 05:30S 27°32' E 153°20'4 7.7
2018-Feb-17 05:00S 27°30' E 153°24'3 5.3
2018-Feb-17 04:30S 27°32' E 153°21'4 7.7
2018-Feb-17 04:00S 27°32' E 153°17'2 3.8
2018-Feb-17 03:30S 27°32' E 153°19'5 9.5
2018-Feb-17 03:00S 27°30' E 153°24'2 4.1
2018-Feb-17 02:30S 27°31' E 153°22'4 8.5
2018-Feb-17 01:59S 27°32' E 153°17'3 5.5
2018-Feb-17 01:30S 27°32' E 153°20'4 7.8
2018-Feb-17 01:00S 27°30' E 153°24'4 8.5
2018-Feb-17 00:30S 27°32' E 153°20'2 4.7
2018-Feb-17 00:00S 27°32' E 153°17'4 7.4
2018-Feb-16 23:30S 27°31' E 153°21'3 5.5
2018-Feb-16 23:00S 27°30' E 153°24'510.6
2018-Feb-16 22:30S 27°32' E 153°19'2 3.0
2018-Feb-16 22:00S 27°32' E 153°17'0 0.0
2018-Feb-16 21:24S 27°32' E 153°17'3 7.5
2018-Feb-16 21:00S 27°32' E 153°20'4 7.1
2018-Feb-16 20:30S 27°30' E 153°24'3 6.5
2018-Feb-16 20:00S 27°32' E 153°21'3 6.6
2018-Feb-16 19:30S 27°32' E 153°17'0 0.0
2018-Feb-16 11:44S 27°32' E 153°17'2 8.2
2018-Feb-16 11:30S 27°32' E 153°19'5 9.5
2018-Feb-16 11:00S 27°30' E 153°24'3 5.1
2018-Feb-16 10:30S 27°32' E 153°22'4 7.7
2018-Feb-16 10:00S 27°32' E 153°17'2 4.4
2018-Feb-16 09:30S 27°32' E 153°19'4 8.9
2018-Feb-16 09:00S 27°30' E 153°24'3 6.5
2018-Feb-16 08:30S 27°32' E 153°21'3 6.6
2018-Feb-16 08:00S 27°32' E 153°17'3 5.0
2018-Feb-16 07:27S 27°32' E 153°20'4 8.3
2018-Feb-16 07:00S 27°30' E 153°24'4 7.6
2018-Feb-16 06:30S 27°32' E 153°20'3 5.4
2018-Feb-16 06:00S 27°32' E 153°17'2 3.2
2018-Feb-16 05:30S 27°32' E 153°19'510.5
2018-Feb-16 05:00S 27°30' E 153°24'3 5.6
2018-Feb-16 04:30S 27°32' E 153°21'4 7.1
2018-Feb-16 04:00S 27°32' E 153°17'3 5.1
2018-Feb-16 03:24S 27°32' E 153°21'3 8.8
2018-Feb-16 03:00S 27°30' E 153°24'4 7.4
2018-Feb-16 02:30S 27°32' E 153°20'3 5.6
2018-Feb-16 02:00S 27°32' E 153°17'3 5.0
2018-Feb-16 01:29S 27°32' E 153°20'4 8.3
2018-Feb-16 01:01S 27°30' E 153°24'3 6.0
2018-Feb-16 00:30S 27°32' E 153°21'4 6.9
2018-Feb-16 00:00S 27°32' E 153°17'2 4.5
2018-Feb-15 23:29S 27°32' E 153°20'4 8.9
2018-Feb-15 23:00S 27°30' E 153°24'2 4.2
2018-Feb-15 22:30S 27°31' E 153°22'4 8.8
2018-Feb-15 22:00S 27°32' E 153°17'0 0.0
2018-Feb-15 21:30S 27°32' E 153°17'3 5.5
2018-Feb-15 20:59S 27°32' E 153°20'4 7.6
2018-Feb-15 20:30S 27°30' E 153°24'3 5.4
2018-Feb-15 20:00S 27°32' E 153°21'4 7.7
2018-Feb-15 19:30S 27°32' E 153°17'0 0.0
2018-Feb-15 07:51S 27°32' E 153°17'2 6.2
2018-Feb-15 07:29S 27°32' E 153°20'4 8.9
2018-Feb-15 07:00S 27°30' E 153°24'3 5.6
2018-Feb-15 06:30S 27°32' E 153°21'4 7.6
2018-Feb-15 06:01S 27°32' E 153°17'2 4.3
2018-Feb-15 05:28S 27°32' E 153°20'4 9.1
2018-Feb-15 05:00S 27°30' E 153°24'3 5.1
2018-Feb-15 04:31S 27°32' E 153°22'4 8.0
2018-Feb-15 04:01S 27°32' E 153°17'3 4.9
2018-Feb-15 03:26S 27°32' E 153°20'4 8.7
2018-Feb-15 03:01S 27°30' E 153°24'2 4.9
2018-Feb-15 02:31S 27°32' E 153°22'4 8.0
2018-Feb-15 02:00S 27°32' E 153°17'2 4.1
2018-Feb-15 01:30S 27°32' E 153°19'5 9.4
2018-Feb-15 01:00S 27°30' E 153°24'3 5.5
2018-Feb-15 00:30S 27°32' E 153°21'4 7.4
2018-Feb-15 00:00S 27°32' E 153°17'3 6.6
2018-Feb-14 23:30S 27°32' E 153°21'3 6.6
2018-Feb-14 23:00S 27°30' E 153°24'2 4.4
2018-Feb-14 22:30S 27°32' E 153°22'4 8.8
2018-Feb-14 22:00S 27°32' E 153°17'0 0.0
2018-Feb-14 21:30S 27°32' E 153°17'2 4.6
2018-Feb-14 20:59S 27°32' E 153°20'4 8.6
2018-Feb-14 20:30S 27°30' E 153°24'2 4.6
2018-Feb-14 20:00S 27°32' E 153°22'4 8.6
2018-Feb-14 19:30S 27°32' E 153°17'0 0.0
2018-Feb-14 19:01S 27°32' E 153°17'0 0.0
2018-Feb-14 07:52S 27°32' E 153°17'2 5.1
2018-Feb-14 07:29S 27°32' E 153°19'5 9.7
2018-Feb-14 07:00S 27°30' E 153°24'3 5.4
2018-Feb-14 06:30S 27°32' E 153°21'4 7.7
2018-Feb-14 06:00S 27°32' E 153°17'2 3.5
2018-Feb-14 05:30S 27°32' E 153°19'5 9.8
2018-Feb-14 05:00S 27°30' E 153°24'2 5.0
2018-Feb-14 04:30S 27°32' E 153°22'4 7.9
2018-Feb-14 04:00S 27°32' E 153°17'3 5.1
2018-Feb-14 03:28S 27°32' E 153°20'4 8.2
2018-Feb-14 03:00S 27°30' E 153°24'2 4.8
2018-Feb-14 02:30S 27°31' E 153°22'4 7.9
2018-Feb-14 01:59S 27°32' E 153°17'2 3.6
2018-Feb-14 01:30S 27°32' E 153°19'5 9.9
2018-Feb-14 01:01S 27°30' E 153°24'2 3.9
2018-Feb-14 00:30S 27°31' E 153°22'5 9.0
2018-Feb-14 00:00S 27°32' E 153°17'2 4.3
2018-Feb-13 23:27S 27°32' E 153°20'4 9.4
2018-Feb-13 23:00S 27°30' E 153°24'2 4.9
2018-Feb-13 22:30S 27°32' E 153°22'4 8.0
2018-Feb-13 22:00S 27°32' E 153°17'0 0.0
2018-Feb-13 21:31S 27°32' E 153°17'2 4.1
2018-Feb-13 20:58S 27°32' E 153°20'4 9.4
2018-Feb-13 20:30S 27°30' E 153°24'2 4.1
2018-Feb-13 20:00S 27°31' E 153°22'5 9.1
2018-Feb-13 19:30S 27°32' E 153°17'0 0.0
2018-Feb-13 07:59S 27°32' E 153°17'3 5.6
2018-Feb-13 07:31S 27°32' E 153°20'4 7.6
2018-Feb-13 07:00S 27°30' E 153°24'3 6.1
2018-Feb-13 06:31S 27°32' E 153°21'4 7.0
2018-Feb-13 06:01S 27°32' E 153°17'2 4.6
2018-Feb-13 05:30S 27°32' E 153°20'4 8.6
2018-Feb-13 05:00S 27°30' E 153°24'3 6.0
2018-Feb-13 04:30S 27°32' E 153°21'4 7.0
2018-Feb-13 04:00S 27°32' E 153°17'2 4.2
2018-Feb-13 03:31S 27°32' E 153°19'4 8.7
2018-Feb-13 03:00S 27°30' E 153°24'2 4.7
2018-Feb-13 02:30S 27°32' E 153°22'4 8.6
2018-Feb-13 02:01S 27°32' E 153°17'2 4.1
2018-Feb-13 01:30S 27°32' E 153°19'4 9.0
2018-Feb-13 01:00S 27°30' E 153°24'2 4.8
2018-Feb-13 00:30S 27°32' E 153°22'4 8.5
2018-Feb-13 00:01S 27°32' E 153°17'3 4.8
2018-Feb-12 23:28S 27°32' E 153°20'4 8.6
2018-Feb-12 23:01S 27°30' E 153°24'2 5.0
2018-Feb-12 22:30S 27°32' E 153°22'4 8.2
2018-Feb-12 22:01S 27°32' E 153°17'0 0.0
2018-Feb-12 21:30S 27°32' E 153°17'3 5.9
2018-Feb-12 21:00S 27°32' E 153°20'3 7.1
2018-Feb-12 20:30S 27°30' E 153°24'2 4.7
2018-Feb-12 20:01S 27°31' E 153°22'4 6.7
2018-Feb-12 19:23S 27°32' E 153°17'0 0.0
2018-Feb-12 19:01S 27°32' E 153°17'0 0.0
2018-Feb-12 08:08S 27°32' E 153°17'0 0.0
2018-Feb-12 08:01S 27°32' E 153°17'3 5.1
2018-Feb-12 07:30S 27°32' E 153°20'4 7.9
2018-Feb-12 07:00S 27°30' E 153°24'3 5.5
2018-Feb-12 06:30S 27°32' E 153°21'4 7.5
2018-Feb-12 06:00S 27°32' E 153°17'3 5.0
2018-Feb-12 05:30S 27°32' E 153°20'4 8.1
2018-Feb-12 05:00S 27°30' E 153°24'3 6.0
2018-Feb-12 04:30S 27°32' E 153°21'4 7.2
2018-Feb-12 04:01S 27°32' E 153°17'2 4.4
2018-Feb-12 03:30S 27°32' E 153°20'4 8.8
2018-Feb-12 03:01S 27°30' E 153°24'2 4.8
2018-Feb-12 02:30S 27°31' E 153°22'4 7.9
2018-Feb-12 01:59S 27°32' E 153°17'2 4.1
2018-Feb-12 01:30S 27°32' E 153°19'5 9.4
2018-Feb-12 01:01S 27°30' E 153°24'2 4.4
2018-Feb-12 00:30S 27°31' E 153°22'4 8.8
2018-Feb-12 00:01S 27°32' E 153°17'2 4.4
2018-Feb-11 23:31S 27°32' E 153°20'4 8.6
2018-Feb-11 23:00S 27°30' E 153°24'3 5.8
2018-Feb-11 22:30S 27°32' E 153°21'4 7.3
2018-Feb-11 22:01S 27°32' E 153°17'0 0.0
2018-Feb-11 21:31S 27°32' E 153°17'3 6.0
2018-Feb-11 21:00S 27°32' E 153°21'3 6.8
2018-Feb-11 20:30S 27°30' E 153°24'2 4.0
2018-Feb-11 20:01S 27°31' E 153°22'5 9.1
2018-Feb-11 19:30S 27°32' E 153°17'0 0.0
2018-Feb-11 09:58S 27°32' E 153°17'3 5.4
2018-Feb-11 09:30S 27°32' E 153°20'4 8.1
2018-Feb-11 09:00S 27°30' E 153°24'2 3.1
2018-Feb-11 08:30S 27°31' E 153°23'510.0
2018-Feb-11 08:00S 27°32' E 153°17'2 4.4
2018-Feb-11 07:29S 27°32' E 153°20'4 8.8
2018-Feb-11 07:00S 27°30' E 153°24'2 4.6
2018-Feb-11 06:30S 27°32' E 153°22'4 8.5
2018-Feb-11 06:00S 27°32' E 153°17'2 4.7
2018-Feb-11 05:30S 27°32' E 153°20'4 8.6
2018-Feb-11 05:00S 27°30' E 153°24'2 4.6
2018-Feb-11 04:30S 27°32' E 153°22'4 8.6
2018-Feb-11 04:00S 27°32' E 153°17'2 3.7
2018-Feb-11 03:30S 27°32' E 153°19'5 9.9
2018-Feb-11 03:00S 27°30' E 153°24'2 4.3
2018-Feb-11 02:30S 27°31' E 153°22'4 8.8
2018-Feb-11 02:00S 27°32' E 153°17'1 2.9
2018-Feb-11 01:30S 27°32' E 153°18'510.8
2018-Feb-11 01:00S 27°30' E 153°24'2 3.7
2018-Feb-11 00:30S 27°31' E 153°22'5 9.4
2018-Feb-11 00:00S 27°32' E 153°17'2 3.3
2018-Feb-10 23:30S 27°32' E 153°19'5 9.9
2018-Feb-10 22:59S 27°30' E 153°24'2 4.2
2018-Feb-10 22:30S 27°31' E 153°22'5 9.0
2018-Feb-10 22:00S 27°32' E 153°17'0 0.0
2018-Feb-10 21:30S 27°32' E 153°17'2 3.8
2018-Feb-10 21:00S 27°32' E 153°19'5 9.6
2018-Feb-10 20:30S 27°30' E 153°24'2 3.3
2018-Feb-10 20:00S 27°31' E 153°23'5 9.7
2018-Feb-10 19:30S 27°32' E 153°17'0 0.1
2018-Feb-10 19:00S 27°32' E 153°17'0 0.0
2018-Feb-10 07:48S 27°32' E 153°17'2 6.6
2018-Feb-10 07:29S 27°32' E 153°19'4 9.5
2018-Feb-10 07:00S 27°30' E 153°24'2 3.8
2018-Feb-10 06:30S 27°31' E 153°22'5 9.3
2018-Feb-10 06:00S 27°32' E 153°17'2 3.7
2018-Feb-10 05:30S 27°32' E 153°19'5 9.4
2018-Feb-10 05:00S 27°30' E 153°24'2 4.4
2018-Feb-10 04:30S 27°31' E 153°22'4 8.8
2018-Feb-10 04:00S 27°32' E 153°17'2 3.5
2018-Feb-10 03:30S 27°32' E 153°19'5 9.9
2018-Feb-10 03:00S 27°30' E 153°24'2 4.7
2018-Feb-10 02:30S 27°31' E 153°22'4 8.4
2018-Feb-10 02:00S 27°32' E 153°17'2 3.9
2018-Feb-10 01:30S 27°32' E 153°19'5 9.6
2018-Feb-10 01:00S 27°30' E 153°24'3 5.5
2018-Feb-10 00:30S 27°32' E 153°21'4 7.5
2018-Feb-10 00:00S 27°32' E 153°17'2 3.9
2018-Feb-09 23:28S 27°32' E 153°19'5 9.6
2018-Feb-09 23:00S 27°30' E 153°24'0 0.1
2018-Feb-09 22:46S 27°30' E 153°24'2 9.1
2018-Feb-09 22:30S 27°32' E 153°22'4 8.4
2018-Feb-09 22:00S 27°32' E 153°17'2 1.9
2018-Feb-09 21:00S 27°32' E 153°19'0 0.0
2018-Feb-09 11:30S 27°32' E 153°19'2 1.3
2018-Feb-09 10:00S 27°32' E 153°17'2 3.6
2018-Feb-09 09:30S 27°32' E 153°19'2 1.9
2018-Feb-09 08:30S 27°32' E 153°21'3 2.0
2018-Feb-09 07:00S 27°30' E 153°24'2 4.8
2018-Feb-09 06:30S 27°32' E 153°22'  

Dump ship's entire track history